sensor_id;sensor_type;location;lat;lon;timestamp;temperature;humidity
42715;DHT22;28351;51.480;5.706;2023-11-21T00:16:17;7.60;99.90
42715;DHT22;28351;51.480;5.706;2023-11-21T00:18:51;7.50;99.90
42715;DHT22;28351;51.480;5.706;2023-11-21T00:21:55;7.60;99.90
42715;DHT22;28351;51.480;5.706;2023-11-21T00:24:41;7.60;99.90
42715;DHT22;28351;51.480;5.706;2023-11-21T00:27:16;7.60;99.90
42715;DHT22;28351;51.480;5.706;2023-11-21T00:29:45;7.60;99.90
42715;DHT22;28351;51.480;5.706;2023-11-21T00:32:19;7.60;99.90
42715;DHT22;28351;51.480;5.706;2023-11-21T00:37:46;7.70;99.90
42715;DHT22;28351;51.480;5.706;2023-11-21T00:40:46;7.70;99.90
42715;DHT22;28351;51.480;5.706;2023-11-21T00:44:03;7.70;99.90
42715;DHT22;28351;51.480;5.706;2023-11-21T00:53:30;7.50;99.90
42715;DHT22;28351;51.480;5.706;2023-11-21T00:56:54;7.40;99.90
42715;DHT22;28351;51.480;5.706;2023-11-21T01:00:15;7.40;99.90
42715;DHT22;28351;51.480;5.706;2023-11-21T01:10:44;7.00;99.90
42715;DHT22;28351;51.480;5.706;2023-11-21T01:14:06;6.90;99.90
42715;DHT22;28351;51.480;5.706;2023-11-21T01:20:47;6.70;99.90
42715;DHT22;28351;51.480;5.706;2023-11-21T01:23:47;6.70;99.90
42715;DHT22;28351;51.480;5.706;2023-11-21T01:30:07;6.80;99.90
42715;DHT22;28351;51.480;5.706;2023-11-21T01:32:34;6.80;99.90
42715;DHT22;28351;51.480;5.706;2023-11-21T01:35:11;6.70;99.90
42715;DHT22;28351;51.480;5.706;2023-11-21T01:37:38;6.70;99.90
42715;DHT22;28351;51.480;5.706;2023-11-21T01:40:08;6.80;99.90
42715;DHT22;28351;51.480;5.706;2023-11-21T01:42:40;6.80;99.90
42715;DHT22;28351;51.480;5.706;2023-11-21T01:45:09;6.90;99.90
42715;DHT22;28351;51.480;5.706;2023-11-21T01:47:45;6.90;99.90
42715;DHT22;28351;51.480;5.706;2023-11-21T01:50:26;6.90;99.90
42715;DHT22;28351;51.480;5.706;2023-11-21T01:52:53;6.90;99.90
42715;DHT22;28351;51.480;5.706;2023-11-21T01:55:22;7.00;99.90
42715;DHT22;28351;51.480;5.706;2023-11-21T01:58:19;7.00;99.90
42715;DHT22;28351;51.480;5.706;2023-11-21T02:11:35;7.10;99.90
42715;DHT22;28351;51.480;5.706;2023-11-21T02:18:45;7.10;99.90
42715;DHT22;28351;51.480;5.706;2023-11-21T02:22:22;7.20;99.90
42715;DHT22;28351;51.480;5.706;2023-11-21T02:25:03;7.20;99.90
42715;DHT22;28351;51.480;5.706;2023-11-21T02:27:38;7.20;99.90
42715;DHT22;28351;51.480;5.706;2023-11-21T02:30:35;7.20;99.90
42715;DHT22;28351;51.480;5.706;2023-11-21T02:33:49;7.30;99.90
42715;DHT22;28351;51.480;5.706;2023-11-21T02:36:21;7.30;99.90
42715;DHT22;28351;51.480;5.706;2023-11-21T02:39:10;7.30;99.90
42715;DHT22;28351;51.480;5.706;2023-11-21T02:41:40;7.30;99.90
42715;DHT22;28351;51.480;5.706;2023-11-21T02:48:13;7.30;99.90
42715;DHT22;28351;51.480;5.706;2023-11-21T02:50:39;7.30;99.90
42715;DHT22;28351;51.480;5.706;2023-11-21T02:53:15;7.30;99.90
42715;DHT22;28351;51.480;5.706;2023-11-21T02:55:41;7.30;99.90
42715;DHT22;28351;51.480;5.706;2023-11-21T02:58:09;7.30;99.90
42715;DHT22;28351;51.480;5.706;2023-11-21T03:00:36;7.30;99.90
42715;DHT22;28351;51.480;5.706;2023-11-21T03:03:03;7.30;99.90
42715;DHT22;28351;51.480;5.706;2023-11-21T03:05:32;7.30;99.90
42715;DHT22;28351;51.480;5.706;2023-11-21T03:08:02;7.30;99.90
42715;DHT22;28351;51.480;5.706;2023-11-21T03:10:28;7.30;99.90
42715;DHT22;28351;51.480;5.706;2023-11-21T03:12:55;7.20;99.90
42715;DHT22;28351;51.480;5.706;2023-11-21T03:15:26;7.20;99.90
42715;DHT22;28351;51.480;5.706;2023-11-21T03:18:00;7.20;99.90
42715;DHT22;28351;51.480;5.706;2023-11-21T03:20:43;7.20;99.90
42715;DHT22;28351;51.480;5.706;2023-11-21T03:23:35;7.20;99.90
42715;DHT22;28351;51.480;5.706;2023-11-21T03:26:12;7.30;99.90
42715;DHT22;28351;51.480;5.706;2023-11-21T03:28:41;7.20;99.90
42715;DHT22;28351;51.480;5.706;2023-11-21T03:31:08;7.20;99.90
42715;DHT22;28351;51.480;5.706;2023-11-21T03:33:36;7.10;99.90
42715;DHT22;28351;51.480;5.706;2023-11-21T03:36:05;7.20;99.90
42715;DHT22;28351;51.480;5.706;2023-11-21T03:38:31;7.20;99.90
42715;DHT22;28351;51.480;5.706;2023-11-21T03:41:02;7.10;99.90
42715;DHT22;28351;51.480;5.706;2023-11-21T03:43:30;7.10;99.90
42715;DHT22;28351;51.480;5.706;2023-11-21T03:45:56;7.20;99.90
42715;DHT22;28351;51.480;5.706;2023-11-21T03:48:24;7.20;99.90
42715;DHT22;28351;51.480;5.706;2023-11-21T03:54:18;7.20;99.90
42715;DHT22;28351;51.480;5.706;2023-11-21T04:00:25;7.10;99.90
42715;DHT22;28351;51.480;5.706;2023-11-21T04:02:57;7.10;99.90
42715;DHT22;28351;51.480;5.706;2023-11-21T04:05:25;7.10;99.90
42715;DHT22;28351;51.480;5.706;2023-11-21T04:07:51;7.10;99.90
42715;DHT22;28351;51.480;5.706;2023-11-21T04:10:20;7.10;99.90
42715;DHT22;28351;51.480;5.706;2023-11-21T04:12:50;7.10;99.90
42715;DHT22;28351;51.480;5.706;2023-11-21T04:15:16;7.10;99.90
42715;DHT22;28351;51.480;5.706;2023-11-21T04:17:45;7.00;99.90
42715;DHT22;28351;51.480;5.706;2023-11-21T04:20:11;7.00;99.90
42715;DHT22;28351;51.480;5.706;2023-11-21T04:22:44;7.00;99.90
42715;DHT22;28351;51.480;5.706;2023-11-21T04:25:16;7.00;99.90
42715;DHT22;28351;51.480;5.706;2023-11-21T04:27:55;7.00;99.90
42715;DHT22;28351;51.480;5.706;2023-11-21T04:30:23;7.00;99.90
42715;DHT22;28351;51.480;5.706;2023-11-21T04:32:50;7.00;99.90
42715;DHT22;28351;51.480;5.706;2023-11-21T04:35:19;7.00;99.90
42715;DHT22;28351;51.480;5.706;2023-11-21T04:37:46;7.10;99.90
42715;DHT22;28351;51.480;5.706;2023-11-21T04:40:13;7.10;99.90
42715;DHT22;28351;51.480;5.706;2023-11-21T04:42:42;7.10;99.90
42715;DHT22;28351;51.480;5.706;2023-11-21T04:45:09;7.00;99.90
42715;DHT22;28351;51.480;5.706;2023-11-21T04:47:45;7.00;99.90
42715;DHT22;28351;51.480;5.706;2023-11-21T04:50:12;7.00;99.90
42715;DHT22;28351;51.480;5.706;2023-11-21T04:52:45;6.90;99.90
42715;DHT22;28351;51.480;5.706;2023-11-21T04:55:13;7.00;99.90
42715;DHT22;28351;51.480;5.706;2023-11-21T04:57:40;6.90;99.90
42715;DHT22;28351;51.480;5.706;2023-11-21T05:00:08;6.90;99.90
42715;DHT22;28351;51.480;5.706;2023-11-21T05:02:34;6.90;99.90
42715;DHT22;28351;51.480;5.706;2023-11-21T05:05:02;7.00;99.90
42715;DHT22;28351;51.480;5.706;2023-11-21T05:07:30;7.00;99.90
42715;DHT22;28351;51.480;5.706;2023-11-21T05:10:04;7.00;99.90
42715;DHT22;28351;51.480;5.706;2023-11-21T05:12:34;7.00;99.90
42715;DHT22;28351;51.480;5.706;2023-11-21T05:20:19;7.00;99.90
42715;DHT22;28351;51.480;5.706;2023-11-21T05:22:51;6.90;99.90
42715;DHT22;28351;51.480;5.706;2023-11-21T05:25:41;7.00;99.90
42715;DHT22;28351;51.480;5.706;2023-11-21T05:28:27;7.10;99.90
42715;DHT22;28351;51.480;5.706;2023-11-21T05:31:20;7.10;99.90
42715;DHT22;28351;51.480;5.706;2023-11-21T05:34:28;7.10;99.90
42715;DHT22;28351;51.480;5.706;2023-11-21T05:37:06;7.00;99.90
42715;DHT22;28351;51.480;5.706;2023-11-21T05:39:47;7.00;99.90
42715;DHT22;28351;51.480;5.706;2023-11-21T05:42:16;7.00;99.90
42715;DHT22;28351;51.480;5.706;2023-11-21T05:44:46;7.00;99.90
42715;DHT22;28351;51.480;5.706;2023-11-21T05:47:12;7.00;99.90
42715;DHT22;28351;51.480;5.706;2023-11-21T05:49:46;7.00;99.90
42715;DHT22;28351;51.480;5.706;2023-11-21T05:52:29;7.00;99.90
42715;DHT22;28351;51.480;5.706;2023-11-21T05:54:56;7.00;99.90
42715;DHT22;28351;51.480;5.706;2023-11-21T05:57:25;7.00;99.90
42715;DHT22;28351;51.480;5.706;2023-11-21T05:59:55;7.00;99.90
42715;DHT22;28351;51.480;5.706;2023-11-21T06:02:21;7.10;99.90
42715;DHT22;28351;51.480;5.706;2023-11-21T06:04:46;7.00;99.90
42715;DHT22;28351;51.480;5.706;2023-11-21T06:07:12;6.90;99.90
42715;DHT22;28351;51.480;5.706;2023-11-21T06:17:28;6.90;99.90
42715;DHT22;28351;51.480;5.706;2023-11-21T06:19:54;7.00;99.90
42715;DHT22;28351;51.480;5.706;2023-11-21T06:22:20;6.90;99.90
42715;DHT22;28351;51.480;5.706;2023-11-21T06:24:47;6.90;99.90
42715;DHT22;28351;51.480;5.706;2023-11-21T06:27:15;6.90;99.90
42715;DHT22;28351;51.480;5.706;2023-11-21T06:29:46;7.00;99.90
42715;DHT22;28351;51.480;5.706;2023-11-21T06:32:16;6.90;99.90
42715;DHT22;28351;51.480;5.706;2023-11-21T06:34:46;7.00;99.90
42715;DHT22;28351;51.480;5.706;2023-11-21T06:37:12;7.00;99.90
42715;DHT22;28351;51.480;5.706;2023-11-21T06:40:01;7.00;99.90
42715;DHT22;28351;51.480;5.706;2023-11-21T06:43:17;7.00;99.90
42715;DHT22;28351;51.480;5.706;2023-11-21T06:45:56;7.10;99.90
42715;DHT22;28351;51.480;5.706;2023-11-21T06:51:26;7.10;99.90
42715;DHT22;28351;51.480;5.706;2023-11-21T06:53:58;7.20;99.90
42715;DHT22;28351;51.480;5.706;2023-11-21T06:56:56;7.20;99.90
42715;DHT22;28351;51.480;5.706;2023-11-21T07:00:06;7.20;99.90
42715;DHT22;28351;51.480;5.706;2023-11-21T07:05:28;7.20;99.90
42715;DHT22;28351;51.480;5.706;2023-11-21T07:08:17;7.20;99.90
42715;DHT22;28351;51.480;5.706;2023-11-21T07:16:46;7.30;99.90
42715;DHT22;28351;51.480;5.706;2023-11-21T07:19:12;7.30;99.90
42715;DHT22;28351;51.480;5.706;2023-11-21T07:30:43;7.30;99.90
42715;DHT22;28351;51.480;5.706;2023-11-21T07:42:04;7.50;99.90
42715;DHT22;28351;51.480;5.706;2023-11-21T08:36:35;7.90;99.90
42715;DHT22;28351;51.480;5.706;2023-11-21T08:39:09;7.90;99.90
42715;DHT22;28351;51.480;5.706;2023-11-21T08:41:35;7.90;99.90
42715;DHT22;28351;51.480;5.706;2023-11-21T08:44:03;7.90;99.90
42715;DHT22;28351;51.480;5.706;2023-11-21T08:47:23;7.90;99.90
42715;DHT22;28351;51.480;5.706;2023-11-21T08:50:10;8.00;99.90
42715;DHT22;28351;51.480;5.706;2023-11-21T08:52:43;8.10;99.90
42715;DHT22;28351;51.480;5.706;2023-11-21T08:55:15;8.10;99.90
42715;DHT22;28351;51.480;5.706;2023-11-21T08:58:07;8.10;99.90
42715;DHT22;28351;51.480;5.706;2023-11-21T09:00:33;8.20;99.90
42715;DHT22;28351;51.480;5.706;2023-11-21T09:03:06;8.20;99.90
42715;DHT22;28351;51.480;5.706;2023-11-21T09:05:37;8.20;99.90
42715;DHT22;28351;51.480;5.706;2023-11-21T09:08:03;8.20;99.90
42715;DHT22;28351;51.480;5.706;2023-11-21T09:10:29;8.20;99.90
42715;DHT22;28351;51.480;5.706;2023-11-21T09:16:17;8.30;99.90
42715;DHT22;28351;51.480;5.706;2023-11-21T09:18:42;8.30;99.90
42715;DHT22;28351;51.480;5.706;2023-11-21T09:21:08;8.30;99.90
42715;DHT22;28351;51.480;5.706;2023-11-21T09:23:35;8.30;99.90
42715;DHT22;28351;51.480;5.706;2023-11-21T09:26:01;8.30;99.90
42715;DHT22;28351;51.480;5.706;2023-11-21T09:28:27;8.30;99.90
42715;DHT22;28351;51.480;5.706;2023-11-21T09:47:15;8.70;99.90
42715;DHT22;28351;51.480;5.706;2023-11-21T09:49:51;8.70;99.90
42715;DHT22;28351;51.480;5.706;2023-11-21T09:52:27;8.80;99.90
42715;DHT22;28351;51.480;5.706;2023-11-21T09:54:54;8.90;99.90
42715;DHT22;28351;51.480;5.706;2023-11-21T09:57:24;9.00;99.90
42715;DHT22;28351;51.480;5.706;2023-11-21T09:59:54;9.00;99.90
42715;DHT22;28351;51.480;5.706;2023-11-21T10:02:28;9.00;99.90
42715;DHT22;28351;51.480;5.706;2023-11-21T10:04:56;9.00;99.90
42715;DHT22;28351;51.480;5.706;2023-11-21T10:07:23;9.10;99.90
42715;DHT22;28351;51.480;5.706;2023-11-21T10:09:51;9.10;99.90
42715;DHT22;28351;51.480;5.706;2023-11-21T10:12:16;9.10;99.90
42715;DHT22;28351;51.480;5.706;2023-11-21T10:14:43;9.00;99.90
42715;DHT22;28351;51.480;5.706;2023-11-21T10:17:12;9.00;99.90
42715;DHT22;28351;51.480;5.706;2023-11-21T10:19:41;8.90;99.90
42715;DHT22;28351;51.480;5.706;2023-11-21T10:22:07;9.00;99.90
42715;DHT22;28351;51.480;5.706;2023-11-21T10:24:40;9.10;99.90
42715;DHT22;28351;51.480;5.706;2023-11-21T10:27:09;9.20;99.90
42715;DHT22;28351;51.480;5.706;2023-11-21T10:29:34;9.30;99.90
42715;DHT22;28351;51.480;5.706;2023-11-21T10:32:02;9.30;99.90
42715;DHT22;28351;51.480;5.706;2023-11-21T10:34:29;9.40;99.90
42715;DHT22;28351;51.480;5.706;2023-11-21T10:36:55;9.60;99.90
42715;DHT22;28351;51.480;5.706;2023-11-21T10:39:23;9.60;99.90
42715;DHT22;28351;51.480;5.706;2023-11-21T10:41:54;9.60;99.90
42715;DHT22;28351;51.480;5.706;2023-11-21T10:44:20;9.70;99.90
42715;DHT22;28351;51.480;5.706;2023-11-21T10:46:55;9.70;99.90
42715;DHT22;28351;51.480;5.706;2023-11-21T10:49:26;9.70;99.90
42715;DHT22;28351;51.480;5.706;2023-11-21T10:51:53;9.70;99.90
42715;DHT22;28351;51.480;5.706;2023-11-21T10:54:26;9.60;99.90
42715;DHT22;28351;51.480;5.706;2023-11-21T10:56:59;9.50;99.90
42715;DHT22;28351;51.480;5.706;2023-11-21T10:59:29;9.60;99.90
42715;DHT22;28351;51.480;5.706;2023-11-21T11:01:57;9.70;99.90
42715;DHT22;28351;51.480;5.706;2023-11-21T11:04:25;9.80;99.90
42715;DHT22;28351;51.480;5.706;2023-11-21T11:06:57;9.80;99.90
42715;DHT22;28351;51.480;5.706;2023-11-21T11:09:24;9.70;99.90
42715;DHT22;28351;51.480;5.706;2023-11-21T11:11:51;9.70;99.90
42715;DHT22;28351;51.480;5.706;2023-11-21T11:14:19;9.70;99.90
42715;DHT22;28351;51.480;5.706;2023-11-21T11:16:45;9.70;99.90
42715;DHT22;28351;51.480;5.706;2023-11-21T11:19:11;9.80;99.90
42715;DHT22;28351;51.480;5.706;2023-11-21T11:24:20;9.70;99.90
42715;DHT22;28351;51.480;5.706;2023-11-21T11:26:58;9.80;99.90
42715;DHT22;28351;51.480;5.706;2023-11-21T11:30:39;9.90;99.90
42715;DHT22;28351;51.480;5.706;2023-11-21T11:35:22;9.90;99.90
42715;DHT22;28351;51.480;5.706;2023-11-21T11:37:50;9.90;99.90
42715;DHT22;28351;51.480;5.706;2023-11-21T11:40:15;9.90;99.90
42715;DHT22;28351;51.480;5.706;2023-11-21T11:43:00;10.00;99.90
42715;DHT22;28351;51.480;5.706;2023-11-21T11:45:33;9.90;99.90
42715;DHT22;28351;51.480;5.706;2023-11-21T11:48:01;9.80;99.90
42715;DHT22;28351;51.480;5.706;2023-11-21T11:50:27;9.80;99.90
42715;DHT22;28351;51.480;5.706;2023-11-21T11:52:55;9.80;99.90
42715;DHT22;28351;51.480;5.706;2023-11-21T11:55:36;9.80;99.90
42715;DHT22;28351;51.480;5.706;2023-11-21T11:58:05;9.90;99.90
42715;DHT22;28351;51.480;5.706;2023-11-21T12:00:35;9.80;99.90
42715;DHT22;28351;51.480;5.706;2023-11-21T12:03:07;10.00;99.90
42715;DHT22;28351;51.480;5.706;2023-11-21T12:05:33;10.20;99.90
42715;DHT22;28351;51.480;5.706;2023-11-21T12:08:07;10.30;99.90
42715;DHT22;28351;51.480;5.706;2023-11-21T12:10:34;10.40;99.90
42715;DHT22;28351;51.480;5.706;2023-11-21T12:15:27;10.40;99.90
42715;DHT22;28351;51.480;5.706;2023-11-21T12:17:57;10.40;99.90
42715;DHT22;28351;51.480;5.706;2023-11-21T12:20:26;10.30;99.90
42715;DHT22;28351;51.480;5.706;2023-11-21T12:22:54;10.20;99.90
42715;DHT22;28351;51.480;5.706;2023-11-21T12:25:22;10.20;99.90
42715;DHT22;28351;51.480;5.706;2023-11-21T12:27:50;10.20;99.90
42715;DHT22;28351;51.480;5.706;2023-11-21T12:30:27;10.20;99.90
42715;DHT22;28351;51.480;5.706;2023-11-21T12:33:02;10.10;99.90
42715;DHT22;28351;51.480;5.706;2023-11-21T12:35:30;10.10;99.90
42715;DHT22;28351;51.480;5.706;2023-11-21T12:37:56;10.10;99.90
42715;DHT22;28351;51.480;5.706;2023-11-21T12:40:28;10.00;99.90
42715;DHT22;28351;51.480;5.706;2023-11-21T12:42:57;10.00;99.90
42715;DHT22;28351;51.480;5.706;2023-11-21T12:45:25;10.00;99.90
42715;DHT22;28351;51.480;5.706;2023-11-21T12:48:01;10.00;99.90
42715;DHT22;28351;51.480;5.706;2023-11-21T12:50:30;10.00;99.90
42715;DHT22;28351;51.480;5.706;2023-11-21T12:53:04;10.10;99.90
42715;DHT22;28351;51.480;5.706;2023-11-21T12:55:34;10.00;99.90
42715;DHT22;28351;51.480;5.706;2023-11-21T12:58:09;10.10;99.90
42715;DHT22;28351;51.480;5.706;2023-11-21T13:00:46;10.20;99.90
42715;DHT22;28351;51.480;5.706;2023-11-21T13:03:13;10.20;99.90
42715;DHT22;28351;51.480;5.706;2023-11-21T13:05:43;10.20;99.90
42715;DHT22;28351;51.480;5.706;2023-11-21T13:08:16;10.10;99.90
42715;DHT22;28351;51.480;5.706;2023-11-21T13:10:45;10.10;99.90
42715;DHT22;28351;51.480;5.706;2023-11-21T13:13:14;10.10;99.90
42715;DHT22;28351;51.480;5.706;2023-11-21T13:15:58;10.20;99.90
42715;DHT22;28351;51.480;5.706;2023-11-21T13:18:30;10.20;99.90
42715;DHT22;28351;51.480;5.706;2023-11-21T13:21:00;10.20;99.90
42715;DHT22;28351;51.480;5.706;2023-11-21T13:23:28;10.20;99.90
42715;DHT22;28351;51.480;5.706;2023-11-21T13:25:55;10.20;99.90
42715;DHT22;28351;51.480;5.706;2023-11-21T13:28:21;10.20;99.90
42715;DHT22;28351;51.480;5.706;2023-11-21T13:30:47;10.20;99.90
42715;DHT22;28351;51.480;5.706;2023-11-21T13:33:14;10.20;99.90
42715;DHT22;28351;51.480;5.706;2023-11-21T13:35:53;10.20;99.90
42715;DHT22;28351;51.480;5.706;2023-11-21T13:38:21;10.30;99.90
42715;DHT22;28351;51.480;5.706;2023-11-21T13:40:52;10.30;99.90
42715;DHT22;28351;51.480;5.706;2023-11-21T13:43:24;10.30;99.90
42715;DHT22;28351;51.480;5.706;2023-11-21T13:45:53;10.20;99.90
42715;DHT22;28351;51.480;5.706;2023-11-21T13:48:41;10.20;99.90
42715;DHT22;28351;51.480;5.706;2023-11-21T13:51:11;10.10;99.90
42715;DHT22;28351;51.480;5.706;2023-11-21T13:53:47;10.10;99.90
42715;DHT22;28351;51.480;5.706;2023-11-21T13:56:20;10.00;99.90
42715;DHT22;28351;51.480;5.706;2023-11-21T13:58:49;10.10;99.90
42715;DHT22;28351;51.480;5.706;2023-11-21T14:01:20;10.10;99.90
42715;DHT22;28351;51.480;5.706;2023-11-21T14:03:59;10.10;99.90
42715;DHT22;28351;51.480;5.706;2023-11-21T14:06:38;10.10;99.90
42715;DHT22;28351;51.480;5.706;2023-11-21T14:09:22;10.10;99.90
42715;DHT22;28351;51.480;5.706;2023-11-21T14:11:53;10.10;99.90
42715;DHT22;28351;51.480;5.706;2023-11-21T14:14:22;10.10;99.90
42715;DHT22;28351;51.480;5.706;2023-11-21T14:16:49;10.20;99.90
42715;DHT22;28351;51.480;5.706;2023-11-21T14:19:16;10.20;99.90
42715;DHT22;28351;51.480;5.706;2023-11-21T14:21:43;10.20;99.90
42715;DHT22;28351;51.480;5.706;2023-11-21T14:24:09;10.20;99.90
42715;DHT22;28351;51.480;5.706;2023-11-21T14:26:35;10.20;99.90
42715;DHT22;28351;51.480;5.706;2023-11-21T14:29:01;10.10;99.90
42715;DHT22;28351;51.480;5.706;2023-11-21T14:31:27;10.20;99.90
42715;DHT22;28351;51.480;5.706;2023-11-21T14:33:56;10.10;99.90
42715;DHT22;28351;51.480;5.706;2023-11-21T14:36:22;10.10;99.90
42715;DHT22;28351;51.480;5.706;2023-11-21T14:38:49;10.10;99.90
42715;DHT22;28351;51.480;5.706;2023-11-21T14:41:14;10.20;99.90
42715;DHT22;28351;51.480;5.706;2023-11-21T14:43:40;10.20;99.90
42715;DHT22;28351;51.480;5.706;2023-11-21T14:46:07;10.20;99.90
42715;DHT22;28351;51.480;5.706;2023-11-21T14:48:35;10.20;99.90
42715;DHT22;28351;51.480;5.706;2023-11-21T14:51:21;10.20;99.90
42715;DHT22;28351;51.480;5.706;2023-11-21T14:53:59;10.20;99.90
42715;DHT22;28351;51.480;5.706;2023-11-21T14:56:32;10.20;99.90
42715;DHT22;28351;51.480;5.706;2023-11-21T14:59:01;10.10;99.90
42715;DHT22;28351;51.480;5.706;2023-11-21T15:01:41;10.10;99.90
42715;DHT22;28351;51.480;5.706;2023-11-21T15:04:19;10.10;99.90
42715;DHT22;28351;51.480;5.706;2023-11-21T15:07:14;10.00;99.90
42715;DHT22;28351;51.480;5.706;2023-11-21T15:09:40;9.90;99.90
42715;DHT22;28351;51.480;5.706;2023-11-21T15:12:10;9.90;99.90
42715;DHT22;28351;51.480;5.706;2023-11-21T15:15:05;9.80;99.90
42715;DHT22;28351;51.480;5.706;2023-11-21T15:17:38;9.80;99.90
42715;DHT22;28351;51.480;5.706;2023-11-21T15:20:43;9.80;99.90
42715;DHT22;28351;51.480;5.706;2023-11-21T15:23:34;9.80;99.90
42715;DHT22;28351;51.480;5.706;2023-11-21T15:29:20;9.70;99.90
42715;DHT22;28351;51.480;5.706;2023-11-21T15:31:47;9.70;99.90
42715;DHT22;28351;51.480;5.706;2023-11-21T15:34:14;9.70;99.90
42715;DHT22;28351;51.480;5.706;2023-11-21T15:36:40;9.70;99.90
42715;DHT22;28351;51.480;5.706;2023-11-21T15:39:05;9.60;99.90
42715;DHT22;28351;51.480;5.706;2023-11-21T15:41:32;9.70;99.90
42715;DHT22;28351;51.480;5.706;2023-11-21T15:43:58;9.60;99.90
42715;DHT22;28351;51.480;5.706;2023-11-21T15:46:24;9.60;99.90
42715;DHT22;28351;51.480;5.706;2023-11-21T15:51:51;9.60;99.90
42715;DHT22;28351;51.480;5.706;2023-11-21T15:54:23;9.60;99.90
42715;DHT22;28351;51.480;5.706;2023-11-21T15:56:50;9.60;99.90
42715;DHT22;28351;51.480;5.706;2023-11-21T15:59:17;9.60;99.90
42715;DHT22;28351;51.480;5.706;2023-11-21T16:01:43;9.60;99.90
42715;DHT22;28351;51.480;5.706;2023-11-21T16:04:13;9.60;99.90
42715;DHT22;28351;51.480;5.706;2023-11-21T16:06:47;9.60;99.90
42715;DHT22;28351;51.480;5.706;2023-11-21T16:09:13;9.60;99.90
42715;DHT22;28351;51.480;5.706;2023-11-21T16:12:03;9.60;99.90
42715;DHT22;28351;51.480;5.706;2023-11-21T16:14:30;9.50;99.90
42715;DHT22;28351;51.480;5.706;2023-11-21T16:17:24;9.50;99.90
42715;DHT22;28351;51.480;5.706;2023-11-21T16:25:31;9.40;99.90
42715;DHT22;28351;51.480;5.706;2023-11-21T16:33:55;9.30;99.90
42715;DHT22;28351;51.480;5.706;2023-11-21T16:39:59;9.20;99.90
42715;DHT22;28351;51.480;5.706;2023-11-21T16:42:29;9.20;99.90
42715;DHT22;28351;51.480;5.706;2023-11-21T16:44:57;9.10;99.90
42715;DHT22;28351;51.480;5.706;2023-11-21T16:47:23;9.10;99.90
42715;DHT22;28351;51.480;5.706;2023-11-21T16:49:48;9.00;99.90
42715;DHT22;28351;51.480;5.706;2023-11-21T16:52:17;9.10;99.90
42715;DHT22;28351;51.480;5.706;2023-11-21T16:55:09;9.10;99.90
42715;DHT22;28351;51.480;5.706;2023-11-21T17:06:11;8.90;99.90
42715;DHT22;28351;51.480;5.706;2023-11-21T17:08:45;8.80;99.90
42715;DHT22;28351;51.480;5.706;2023-11-21T17:11:14;8.80;99.90
42715;DHT22;28351;51.480;5.706;2023-11-21T17:13:43;8.80;99.90
42715;DHT22;28351;51.480;5.706;2023-11-21T17:16:10;8.70;99.90
42715;DHT22;28351;51.480;5.706;2023-11-21T17:18:43;8.70;99.90
42715;DHT22;28351;51.480;5.706;2023-11-21T17:21:10;8.70;99.90
42715;DHT22;28351;51.480;5.706;2023-11-21T17:23:36;8.60;99.90
42715;DHT22;28351;51.480;5.706;2023-11-21T17:26:03;8.60;99.90
42715;DHT22;28351;51.480;5.706;2023-11-21T17:28:30;8.50;99.90
42715;DHT22;28351;51.480;5.706;2023-11-21T17:30:56;8.50;99.90
42715;DHT22;28351;51.480;5.706;2023-11-21T17:33:21;8.40;99.90
42715;DHT22;28351;51.480;5.706;2023-11-21T17:35:47;8.40;99.90
42715;DHT22;28351;51.480;5.706;2023-11-21T17:38:15;8.40;99.90
42715;DHT22;28351;51.480;5.706;2023-11-21T17:40:41;8.40;99.90
42715;DHT22;28351;51.480;5.706;2023-11-21T17:43:08;8.30;99.90
42715;DHT22;28351;51.480;5.706;2023-11-21T17:45:36;8.20;99.90
42715;DHT22;28351;51.480;5.706;2023-11-21T17:48:04;8.20;99.90
42715;DHT22;28351;51.480;5.706;2023-11-21T17:50:30;8.10;99.90
42715;DHT22;28351;51.480;5.706;2023-11-21T17:52:56;8.10;99.90
42715;DHT22;28351;51.480;5.706;2023-11-21T17:55:22;8.00;99.90
42715;DHT22;28351;51.480;5.706;2023-11-21T17:57:50;8.00;99.90
42715;DHT22;28351;51.480;5.706;2023-11-21T18:00:17;8.00;99.90
42715;DHT22;28351;51.480;5.706;2023-11-21T18:02:43;8.00;99.90
42715;DHT22;28351;51.480;5.706;2023-11-21T18:05:09;7.90;99.90
42715;DHT22;28351;51.480;5.706;2023-11-21T18:07:39;7.80;99.90
42715;DHT22;28351;51.480;5.706;2023-11-21T18:10:09;7.80;99.90
42715;DHT22;28351;51.480;5.706;2023-11-21T18:12:48;7.80;99.90
42715;DHT22;28351;51.480;5.706;2023-11-21T18:15:16;7.70;99.90
42715;DHT22;28351;51.480;5.706;2023-11-21T18:17:45;7.70;99.90
42715;DHT22;28351;51.480;5.706;2023-11-21T18:20:13;7.70;99.90
42715;DHT22;28351;51.480;5.706;2023-11-21T18:22:40;7.50;99.90
42715;DHT22;28351;51.480;5.706;2023-11-21T18:25:07;7.40;99.90
42715;DHT22;28351;51.480;5.706;2023-11-21T18:27:33;7.30;99.90
42715;DHT22;28351;51.480;5.706;2023-11-21T18:30:02;7.30;99.90
42715;DHT22;28351;51.480;5.706;2023-11-21T18:32:28;7.20;99.90
42715;DHT22;28351;51.480;5.706;2023-11-21T18:35:03;7.10;99.90
42715;DHT22;28351;51.480;5.706;2023-11-21T18:37:42;7.10;99.90
42715;DHT22;28351;51.480;5.706;2023-11-21T18:40:11;7.10;99.90
42715;DHT22;28351;51.480;5.706;2023-11-21T18:42:38;7.00;99.90
42715;DHT22;28351;51.480;5.706;2023-11-21T18:45:05;7.00;99.90
42715;DHT22;28351;51.480;5.706;2023-11-21T18:47:32;6.90;99.90
42715;DHT22;28351;51.480;5.706;2023-11-21T18:50:01;6.90;99.90
42715;DHT22;28351;51.480;5.706;2023-11-21T18:52:27;6.90;99.90
42715;DHT22;28351;51.480;5.706;2023-11-21T18:54:53;6.80;99.90
42715;DHT22;28351;51.480;5.706;2023-11-21T18:57:19;6.80;99.90
42715;DHT22;28351;51.480;5.706;2023-11-21T18:59:48;6.70;99.90
42715;DHT22;28351;51.480;5.706;2023-11-21T19:02:15;6.70;99.90
42715;DHT22;28351;51.480;5.706;2023-11-21T19:04:43;6.60;99.90
42715;DHT22;28351;51.480;5.706;2023-11-21T19:07:10;6.50;99.90
42715;DHT22;28351;51.480;5.706;2023-11-21T19:09:41;6.40;99.90
42715;DHT22;28351;51.480;5.706;2023-11-21T19:12:07;6.50;99.90
42715;DHT22;28351;51.480;5.706;2023-11-21T19:14:36;6.40;99.90
42715;DHT22;28351;51.480;5.706;2023-11-21T19:17:02;6.50;99.90
42715;DHT22;28351;51.480;5.706;2023-11-21T19:19:28;6.40;99.90
42715;DHT22;28351;51.480;5.706;2023-11-21T19:21:53;6.30;99.90
42715;DHT22;28351;51.480;5.706;2023-11-21T19:24:19;6.30;99.90
42715;DHT22;28351;51.480;5.706;2023-11-21T19:26:45;6.30;99.90
42715;DHT22;28351;51.480;5.706;2023-11-21T19:29:11;6.20;99.90
42715;DHT22;28351;51.480;5.706;2023-11-21T19:31:37;6.20;99.90
42715;DHT22;28351;51.480;5.706;2023-11-21T19:34:03;6.10;99.90
42715;DHT22;28351;51.480;5.706;2023-11-21T19:36:28;6.10;99.90
42715;DHT22;28351;51.480;5.706;2023-11-21T19:38:58;6.10;99.90
42715;DHT22;28351;51.480;5.706;2023-11-21T19:41:37;6.10;99.90
42715;DHT22;28351;51.480;5.706;2023-11-21T19:44:05;6.00;99.90
42715;DHT22;28351;51.480;5.706;2023-11-21T19:46:32;5.90;99.90
42715;DHT22;28351;51.480;5.706;2023-11-21T19:51:51;5.80;99.90
42715;DHT22;28351;51.480;5.706;2023-11-21T19:54:16;5.80;99.90
42715;DHT22;28351;51.480;5.706;2023-11-21T19:56:42;5.80;99.90